Time;durP1;ratioP1;P1;durP2;ratioP2;P2;SDS_P1;SDS_P2;PMS_P1;PMS_P2;Temp;Humidity;BMP_temperature;BMP_pressure;BME280_temperature;BME280_humidity;BME280_pressure;Samples;Min_cycle;Max_cycle;Signal;HPM_P1;HPM_P2
2023/05/20 00:00:28;;;;;;;9.67;5.40;;;;;;;;;;5043867;28;20672;-81
2023/05/20 00:02:56;;;;;;;6.33;5.63;;;;;;;;;;5036951;28;20211;-81
2023/05/20 00:05:23;;;;;;;6.60;5.43;;;;;;;;;;5031289;28;20209;-81
2023/05/20 00:07:49;;;;;;;5.83;5.33;;;;;;;;;;5047775;28;20206;-81
2023/05/20 00:10:16;;;;;;;6.27;5.50;;;;;;;;;;5032720;28;20229;-82
2023/05/20 00:12:43;;;;;;;9.50;6.03;;;;;;;;;;5024313;28;20269;-81
2023/05/20 00:15:12;;;;;;;8.33;5.77;;;;;;;;;;5050364;27;20229;-82
2023/05/20 00:17:39;;;;;;;7.80;6.07;;;;;;;;;;5050668;28;20210;-81
2023/05/20 00:20:07;;;;;;;6.90;5.37;;;;;;;;;;5045122;28;20207;-81
2023/05/20 00:22:33;;;;;;;6.97;5.20;;;;;;;;;;5030841;28;20203;-81
2023/05/20 00:25:00;;;;;;;7.37;5.07;;;;;;;;;;5043849;28;20209;-81
2023/05/20 00:27:27;;;;;;;9.20;5.90;;;;;;;;;;5030541;28;20711;-81
2023/05/20 00:29:54;;;;;;;7.40;5.23;;;;;;;;;;5035171;28;20206;-81
2023/05/20 00:32:22;;;;;;;6.23;5.67;;;;;;;;;;5049952;27;20213;-81
2023/05/20 00:34:56;;;;;;;5.50;4.83;;;;;;;;;;5049414;28;20615;-81
2023/05/20 00:37:23;;;;;;;6.17;5.07;;;;;;;;;;5050055;28;20209;-81
2023/05/20 00:39:50;;;;;;;6.03;4.67;;;;;;;;;;5040865;28;20741;-82
2023/05/20 00:42:20;;;;;;;6.53;5.20;;;;;;;;;;5043134;28;20258;-82
2023/05/20 00:44:47;;;;;;;9.73;7.13;;;;;;;;;;5038077;28;20625;-82
2023/05/20 00:47:14;;;;;;;6.33;5.73;;;;;;;;;;5049966;28;21321;-82
2023/05/20 00:49:42;;;;;;;10.67;5.90;;;;;;;;;;5041951;28;20201;-81
2023/05/20 00:52:09;;;;;;;6.90;5.60;;;;;;;;;;5044832;28;20202;-82
2023/05/20 00:54:36;;;;;;;6.53;5.67;;;;;;;;;;5041516;28;20226;-81
2023/05/20 00:57:04;;;;;;;6.23;5.27;;;;;;;;;;5030026;28;20214;-81
2023/05/20 00:59:31;;;;;;;5.93;5.43;;;;;;;;;;5021704;28;20214;-81
2023/05/20 01:01:58;;;;;;;6.17;5.57;;;;;;;;;;5034865;28;20210;-81
2023/05/20 01:04:25;;;;;;;5.87;5.27;;;;;;;;;;5048684;28;20224;-80
2023/05/20 01:06:54;;;;;;;9.10;5.80;;;;;;;;;;5049198;28;20213;-81
2023/05/20 01:09:21;;;;;;;5.23;4.73;;;;;;;;;;5049636;28;20286;-81
2023/05/20 01:11:51;;;;;;;5.93;5.27;;;;;;;;;;5036255;28;20202;-82
2023/05/20 01:14:19;;;;;;;7.17;5.80;;;;;;;;;;5038706;28;20259;-82
2023/05/20 01:16:47;;;;;;;7.40;5.73;;;;;;;;;;5047741;28;20221;-82
2023/05/20 01:19:20;;;;;;;8.83;6.40;;;;;;;;;;5048305;28;20255;-82
2023/05/20 01:21:48;;;;;;;6.13;5.53;;;;;;;;;;5036424;28;20212;-82
2023/05/20 01:24:16;;;;;;;5.97;5.37;;;;;;;;;;5049758;28;20220;-83
2023/05/20 01:26:47;;;;;;;5.77;5.20;;;;;;;;;;5049445;28;20258;-81
2023/05/20 01:29:17;;;;;;;11.80;5.80;;;;;;;;;;5047241;28;20206;-82
2023/05/20 01:31:44;;;;;;;6.53;5.87;;;;;;;;;;5037745;28;20703;-81
2023/05/20 01:34:12;;;;;;;6.07;5.47;;;;;;;;;;5036254;28;20251;-81
2023/05/20 01:36:39;;;;;;;7.10;5.63;;;;;;;;;;5040440;28;20781;-82
2023/05/20 01:39:07;;;;;;;7.67;5.80;;;;;;;;;;5042867;28;20254;-82
2023/05/20 01:41:35;;;;;;;6.47;5.83;;;;;;;;;;5039016;28;20234;-82
2023/05/20 01:44:02;;;;;;;6.20;5.60;;;;;;;;;;5032299;28;20199;-82
2023/05/20 01:46:32;;;;;;;6.30;5.70;;;;;;;;;;5028161;28;20222;-81
2023/05/20 01:48:59;;;;;;;7.00;5.67;;;;;;;;;;5042705;28;20282;-82
2023/05/20 01:51:26;;;;;;;6.37;5.73;;;;;;;;;;5038333;28;20210;-82
2023/05/20 01:53:53;;;;;;;6.97;5.40;;;;;;;;;;5048018;28;20211;-82
2023/05/20 01:56:21;;;;;;;5.50;4.63;;;;;;;;;;5028700;28;21067;-82
2023/05/20 01:58:49;;;;;;;6.37;5.50;;;;;;;;;;5038827;28;20233;-82
2023/05/20 02:01:16;;;;;;;5.77;5.13;;;;;;;;;;5029071;28;20203;-83
2023/05/20 02:03:43;;;;;;;9.03;6.10;;;;;;;;;;5041195;28;20194;-82
2023/05/20 02:06:10;;;;;;;9.17;5.43;;;;;;;;;;5039411;28;20228;-82
2023/05/20 02:08:38;;;;;;;6.27;5.20;;;;;;;;;;5044392;28;20259;-83
2023/05/20 02:11:05;;;;;;;7.73;5.97;;;;;;;;;;5039487;28;20206;-82
2023/05/20 02:13:32;;;;;;;6.73;5.20;;;;;;;;;;5016709;27;20203;-82
2023/05/20 02:16:00;;;;;;;5.07;4.57;;;;;;;;;;5027080;28;20792;-82
2023/05/20 02:18:27;;;;;;;6.10;5.33;;;;;;;;;;5028990;28;20251;-82
2023/05/20 02:20:54;;;;;;;5.83;5.33;;;;;;;;;;5039841;28;20206;-82
2023/05/20 02:23:21;;;;;;;6.17;5.67;;;;;;;;;;5030759;28;20202;-82
2023/05/20 02:25:47;;;;;;;7.97;6.10;;;;;;;;;;5039996;28;20205;-82
2023/05/20 02:28:15;;;;;;;6.93;5.87;;;;;;;;;;5034591;28;20267;-82
2023/05/20 02:30:42;;;;;;;5.90;5.07;;;;;;;;;;5048196;28;20209;-81
2023/05/20 02:33:11;;;;;;;6.37;5.27;;;;;;;;;;5020989;28;20210;-82
2023/05/20 02:35:37;;;;;;;5.73;5.23;;;;;;;;;;5047962;28;20257;-83
2023/05/20 02:38:05;;;;;;;6.43;5.40;;;;;;;;;;5021497;28;20264;-82
2023/05/20 02:40:32;;;;;;;6.03;5.37;;;;;;;;;;5033508;28;20218;-82
2023/05/20 02:43:01;;;;;;;6.20;5.70;;;;;;;;;;5033673;27;20206;-82
2023/05/20 02:45:28;;;;;;;7.67;6.20;;;;;;;;;;5048263;28;20208;-82
2023/05/20 02:47:54;;;;;;;7.87;5.33;;;;;;;;;;5014437;28;20650;-82
2023/05/20 02:50:23;;;;;;;6.73;5.90;;;;;;;;;;5040194;28;20744;-83
2023/05/20 02:52:50;;;;;;;5.87;5.37;;;;;;;;;;5047921;28;20217;-83
2023/05/20 02:55:17;;;;;;;5.93;5.10;;;;;;;;;;5046673;28;20856;-85
2023/05/20 02:57:43;;;;;;;8.13;5.77;;;;;;;;;;5041326;28;20207;-82
2023/05/20 03:00:12;;;;;;;7.80;6.00;;;;;;;;;;5028042;28;20203;-81
2023/05/20 03:02:39;;;;;;;6.40;5.47;;;;;;;;;;5028510;28;20203;-82
2023/05/20 03:05:06;;;;;;;8.00;5.50;;;;;;;;;;5020371;28;20209;-82
2023/05/20 03:07:36;;;;;;;5.77;5.27;;;;;;;;;;5031474;28;20690;-82
2023/05/20 03:10:03;;;;;;;6.27;5.27;;;;;;;;;;5035783;28;20677;-83
2023/05/20 03:12:31;;;;;;;8.27;5.77;;;;;;;;;;5034220;28;20198;-82
2023/05/20 03:14:59;;;;;;;6.13;5.53;;;;;;;;;;5047724;28;20226;-82
2023/05/20 03:17:26;;;;;;;7.93;5.40;;;;;;;;;;5007422;28;20235;-82
2023/05/20 03:19:53;;;;;;;6.07;5.57;;;;;;;;;;5035253;28;20562;-82
2023/05/20 03:22:20;;;;;;;6.90;6.20;;;;;;;;;;5047489;27;20208;-82
2023/05/20 03:24:48;;;;;;;11.47;6.40;;;;;;;;;;5034786;28;20681;-82
2023/05/20 03:27:15;;;;;;;5.57;5.07;;;;;;;;;;5047654;28;20209;-82
2023/05/20 03:29:42;;;;;;;6.20;5.57;;;;;;;;;;5019560;27;20643;-81
2023/05/20 03:32:09;;;;;;;6.97;5.83;;;;;;;;;;5038515;28;20206;-82
2023/05/20 03:34:37;;;;;;;6.30;5.57;;;;;;;;;;5041954;28;20289;-82
2023/05/20 03:37:04;;;;;;;5.90;5.30;;;;;;;;;;5023969;28;20229;-81
2023/05/20 03:39:31;;;;;;;6.53;5.87;;;;;;;;;;5027812;28;20207;-81
2023/05/20 03:41:59;;;;;;;10.00;8.30;;;;;;;;;;5014649;28;20213;-81
2023/05/20 03:44:26;;;;;;;7.60;5.83;;;;;;;;;;5047141;28;20210;-81
2023/05/20 03:46:53;;;;;;;6.60;5.90;;;;;;;;;;5048425;28;20250;-82
2023/05/20 03:49:20;;;;;;;7.07;5.93;;;;;;;;;;5047771;28;20690;-82
2023/05/20 03:51:47;;;;;;;7.00;5.77;;;;;;;;;;5050169;28;20209;-82
2023/05/20 03:54:15;;;;;;;7.83;7.03;;;;;;;;;;5049656;28;20255;-81
2023/05/20 03:56:42;;;;;;;6.07;5.47;;;;;;;;;;5048943;28;20229;-81
2023/05/20 03:59:10;;;;;;;10.77;6.43;;;;;;;;;;5019409;28;20230;-80
2023/05/20 04:01:37;;;;;;;7.90;7.20;;;;;;;;;;5050568;28;20206;-80
2023/05/20 04:04:04;;;;;;;8.73;7.73;;;;;;;;;;5046444;28;20293;-80
2023/05/20 04:06:31;;;;;;;9.87;7.27;;;;;;;;;;5030686;28;20206;-80
2023/05/20 04:08:58;;;;;;;12.73;7.63;;;;;;;;;;5047795;28;20206;-79
2023/05/20 04:11:25;;;;;;;7.00;5.27;;;;;;;;;;5050242;28;20745;-79
2023/05/20 04:13:53;;;;;;;7.17;6.03;;;;;;;;;;5050300;28;20202;-79
2023/05/20 04:16:22;;;;;;;10.33;6.83;;;;;;;;;;5050250;28;20313;-82
2023/05/20 04:18:51;;;;;;;6.70;5.97;;;;;;;;;;5050479;28;20209;-83
2023/05/20 04:21:18;;;;;;;7.67;6.03;;;;;;;;;;5037993;28;20704;-84
2023/05/20 04:23:44;;;;;;;6.83;6.13;;;;;;;;;;5049242;28;20672;-81
2023/05/20 04:26:11;;;;;;;9.10;6.07;;;;;;;;;;5050124;28;20209;-82
2023/05/20 04:28:40;;;;;;;9.40;7.03;;;;;;;;;;5050116;28;20233;-81
2023/05/20 04:31:09;;;;;;;7.90;6.80;;;;;;;;;;5049964;28;20212;-82
2023/05/20 04:33:37;;;;;;;7.67;6.63;;;;;;;;;;5036497;28;20198;-82
2023/05/20 04:36:06;;;;;;;25.17;13.47;;;;;;;;;;5049995;28;20269;-82
2023/05/20 04:38:34;;;;;;;32.87;20.40;;;;;;;;;;5037540;28;20202;-82
2023/05/20 04:41:01;;;;;;;20.70;15.00;;;;;;;;;;5047759;28;20210;-81
2023/05/20 04:43:28;;;;;;;17.93;14.60;;;;;;;;;;5037129;28;20707;-81
2023/05/20 04:45:55;;;;;;;18.93;14.47;;;;;;;;;;5032913;28;20255;-82
2023/05/20 04:48:22;;;;;;;11.90;9.10;;;;;;;;;;5028830;28;20210;-82
2023/05/20 04:50:50;;;;;;;6.10;5.50;;;;;;;;;;5045690;28;20201;-82
2023/05/20 04:53:17;;;;;;;6.73;5.97;;;;;;;;;;5037133;28;20207;-82
2023/05/20 04:55:46;;;;;;;7.03;6.23;;;;;;;;;;5042488;28;20231;-81
2023/05/20 04:58:14;;;;;;;7.47;6.70;;;;;;;;;;5029332;28;20212;-82
2023/05/20 05:00:41;;;;;;;8.27;6.30;;;;;;;;;;5033515;28;20202;-82
2023/05/20 05:03:08;;;;;;;6.27;5.50;;;;;;;;;;5037053;28;20217;-82
2023/05/20 05:05:36;;;;;;;6.37;5.57;;;;;;;;;;5026600;28;20202;-80
2023/05/20 05:08:05;;;;;;;7.50;6.80;;;;;;;;;;5036741;28;20201;-80
2023/05/20 05:10:32;;;;;;;6.90;5.73;;;;;;;;;;5032509;28;20680;-80
2023/05/20 05:13:01;;;;;;;5.53;5.03;;;;;;;;;;5028823;28;20206;-80
2023/05/20 05:15:28;;;;;;;6.23;5.63;;;;;;;;;;5031313;28;20210;-79
2023/05/20 05:17:55;;;;;;;6.67;6.03;;;;;;;;;;5048478;28;20648;-80
2023/05/20 05:20:22;;;;;;;7.17;6.20;;;;;;;;;;5034122;28;20197;-80
2023/05/20 05:22:49;;;;;;;6.83;6.13;;;;;;;;;;5048368;28;20218;-81
2023/05/20 05:25:17;;;;;;;6.47;5.77;;;;;;;;;;5045098;28;20218;-80
2023/05/20 05:27:44;;;;;;;5.70;5.17;;;;;;;;;;5038558;28;20213;-80
2023/05/20 05:30:11;;;;;;;6.43;5.80;;;;;;;;;;5034711;28;20259;-78
2023/05/20 05:32:38;;;;;;;6.30;5.70;;;;;;;;;;5037530;28;20272;-78
2023/05/20 05:35:06;;;;;;;6.67;6.03;;;;;;;;;;5045362;28;20195;-78
2023/05/20 05:37:33;;;;;;;9.30;5.67;;;;;;;;;;5047041;28;20280;-79
2023/05/20 05:40:00;;;;;;;11.60;6.63;;;;;;;;;;5034661;28;20241;-79
2023/05/20 05:42:28;;;;;;;7.33;6.67;;;;;;;;;;5048157;28;20203;-79
2023/05/20 05:44:54;;;;;;;7.00;6.33;;;;;;;;;;5038371;28;20212;-79
2023/05/20 05:47:28;;;;;;;7.10;5.60;;;;;;;;;;5006460;28;1191048;-79
2023/05/20 05:49:56;;;;;;;10.60;5.97;;;;;;;;;;5049105;28;20205;-79
2023/05/20 05:52:23;;;;;;;7.47;6.03;;;;;;;;;;5048709;28;20198;-79
2023/05/20 05:54:50;;;;;;;7.30;5.70;;;;;;;;;;5038585;28;20272;-81
2023/05/20 05:57:17;;;;;;;6.27;5.63;;;;;;;;;;5029477;28;20224;-80
2023/05/20 05:59:45;;;;;;;7.83;6.03;;;;;;;;;;5040053;28;20212;-80
2023/05/20 06:02:13;;;;;;;8.57;5.87;;;;;;;;;;5044828;28;20210;-79
2023/05/20 06:04:40;;;;;;;7.60;6.03;;;;;;;;;;5029030;28;20216;-79
2023/05/20 06:07:07;;;;;;;7.63;6.07;;;;;;;;;;5030287;28;20202;-79
2023/05/20 06:09:37;;;;;;;7.10;6.40;;;;;;;;;;5029605;28;20581;-79
2023/05/20 06:12:06;;;;;;;5.50;5.00;;;;;;;;;;5042615;28;20223;-80
2023/05/20 06:14:32;;;;;;;7.70;5.87;;;;;;;;;;5028893;28;20212;-80
2023/05/20 06:17:01;;;;;;;5.97;5.47;;;;;;;;;;5042110;28;20237;-79
2023/05/20 06:19:27;;;;;;;9.60;5.93;;;;;;;;;;5029026;28;20209;-80
2023/05/20 06:21:54;;;;;;;7.10;6.43;;;;;;;;;;5041683;28;20209;-79
2023/05/20 06:24:21;;;;;;;6.77;6.07;;;;;;;;;;5028469;28;20326;-81
2023/05/20 06:26:49;;;;;;;7.63;5.03;;;;;;;;;;5041647;28;20218;-80
2023/05/20 06:29:16;;;;;;;6.30;5.70;;;;;;;;;;5029231;28;20235;-81
2023/05/20 06:31:43;;;;;;;7.57;5.63;;;;;;;;;;5037625;28;20210;-80
2023/05/20 06:34:11;;;;;;;7.17;6.47;;;;;;;;;;5020970;28;20691;-81
2023/05/20 06:36:38;;;;;;;5.93;5.23;;;;;;;;;;5023709;28;20779;-81
2023/05/20 06:39:10;;;;;;;5.57;5.07;;;;;;;;;;5030107;28;20631;-80
2023/05/20 06:41:38;;;;;;;7.00;5.43;;;;;;;;;;5030072;28;20212;-81
2023/05/20 06:44:05;;;;;;;8.73;6.03;;;;;;;;;;5027813;28;20267;-81
2023/05/20 06:46:31;;;;;;;6.93;5.90;;;;;;;;;;5036787;28;20237;-81
2023/05/20 06:48:58;;;;;;;7.13;6.47;;;;;;;;;;5029117;28;20271;-81
2023/05/20 06:51:27;;;;;;;6.90;5.93;;;;;;;;;;5040252;28;20198;-81
2023/05/20 06:53:53;;;;;;;6.10;5.53;;;;;;;;;;5040807;28;20213;-82
2023/05/20 06:56:21;;;;;;;5.73;5.23;;;;;;;;;;5047511;28;20574;-79
2023/05/20 06:58:48;;;;;;;6.03;5.40;;;;;;;;;;5035579;28;20287;-84
2023/05/20 07:01:14;;;;;;;6.87;6.00;;;;;;;;;;5021504;28;20642;-82
2023/05/20 07:03:43;;;;;;;6.50;5.90;;;;;;;;;;5047982;28;20217;-85
2023/05/20 07:06:11;;;;;;;6.37;5.77;;;;;;;;;;5021543;28;20204;-83
2023/05/20 07:08:39;;;;;;;6.27;5.67;;;;;;;;;;5046865;27;20209;-84
2023/05/20 07:11:07;;;;;;;5.80;5.30;;;;;;;;;;5028246;28;20211;-81
2023/05/20 07:13:33;;;;;;;6.30;5.70;;;;;;;;;;5027707;28;20208;-82
2023/05/20 07:16:00;;;;;;;6.43;5.83;;;;;;;;;;5028274;28;20251;-84
2023/05/20 07:18:27;;;;;;;7.63;6.10;;;;;;;;;;5042067;28;20206;-80
2023/05/20 07:20:55;;;;;;;8.73;5.97;;;;;;;;;;5047687;28;20285;-82
2023/05/20 07:23:22;;;;;;;7.83;6.93;;;;;;;;;;5032592;28;20624;-86
2023/05/20 07:25:51;;;;;;;5.80;5.20;;;;;;;;;;5036590;28;20705;-82
2023/05/20 07:28:18;;;;;;;8.30;6.20;;;;;;;;;;5027865;28;20216;-85
2023/05/20 07:30:48;;;;;;;6.87;6.17;;;;;;;;;;5028279;28;20582;-86
2023/05/20 07:33:16;;;;;;;8.83;6.90;;;;;;;;;;5044234;28;20214;-84
2023/05/20 07:35:44;;;;;;;6.70;6.00;;;;;;;;;;5030463;28;20205;-82
2023/05/20 07:38:11;;;;;;;5.90;5.37;;;;;;;;;;5046957;28;20635;-81
2023/05/20 07:40:39;;;;;;;7.20;6.53;;;;;;;;;;5047802;28;20209;-82
2023/05/20 07:43:07;;;;;;;7.30;6.13;;;;;;;;;;5030029;28;20206;-82
2023/05/20 07:45:35;;;;;;;8.93;6.67;;;;;;;;;;5042055;28;20630;-81
2023/05/20 07:48:03;;;;;;;13.50;7.80;;;;;;;;;;5039361;28;20231;-80
2023/05/20 07:50:30;;;;;;;7.23;6.53;;;;;;;;;;5041720;28;20560;-80
2023/05/20 07:52:56;;;;;;;7.03;6.33;;;;;;;;;;5043808;28;20320;-80
2023/05/20 07:55:23;;;;;;;6.73;5.80;;;;;;;;;;5040688;28;20707;-81
2023/05/20 07:57:50;;;;;;;6.80;6.23;;;;;;;;;;5027662;28;20234;-80
2023/05/20 08:00:19;;;;;;;9.13;8.17;;;;;;;;;;5027828;28;20199;-82
2023/05/20 08:02:46;;;;;;;7.10;6.40;;;;;;;;;;5036691;28;20276;-80
2023/05/20 08:05:13;;;;;;;7.37;6.67;;;;;;;;;;5033896;28;20214;-79
2023/05/20 08:07:40;;;;;;;7.40;6.60;;;;;;;;;;5037609;28;20214;-79
2023/05/20 08:10:08;;;;;;;9.03;7.90;;;;;;;;;;5041045;28;20203;-79
2023/05/20 08:12:35;;;;;;;6.97;6.20;;;;;;;;;;5027176;28;20202;-80
2023/05/20 08:15:01;;;;;;;7.00;6.27;;;;;;;;;;5040745;28;20210;-80
2023/05/20 08:17:30;;;;;;;6.33;5.67;;;;;;;;;;5022000;28;20232;-80
2023/05/20 08:19:56;;;;;;;10.50;5.70;;;;;;;;;;5020642;28;20667;-81
2023/05/20 08:22:23;;;;;;;7.07;5.60;;;;;;;;;;5036942;28;20257;-81
2023/05/20 08:24:51;;;;;;;5.87;5.27;;;;;;;;;;5046008;28;20217;-82
2023/05/20 08:27:17;;;;;;;6.00;5.40;;;;;;;;;;5045853;28;20676;-82
2023/05/20 08:29:45;;;;;;;6.63;5.47;;;;;;;;;;5044405;28;20289;-81
2023/05/20 08:32:12;;;;;;;11.67;6.70;;;;;;;;;;5030064;28;20252;-81
2023/05/20 08:34:41;;;;;;;6.77;6.07;;;;;;;;;;5011118;28;20210;-80
2023/05/20 08:37:08;;;;;;;6.00;5.33;;;;;;;;;;5050036;28;20226;-81
2023/05/20 08:39:35;;;;;;;5.33;4.80;;;;;;;;;;5049991;28;20274;-80
2023/05/20 08:42:02;;;;;;;9.27;5.90;;;;;;;;;;5050215;28;20266;-80
2023/05/20 08:44:29;;;;;;;5.10;4.40;;;;;;;;;;5050031;28;20285;-80
2023/05/20 08:46:56;;;;;;;7.00;5.40;;;;;;;;;;5050016;28;20234;-80
2023/05/20 08:49:23;;;;;;;7.03;5.47;;;;;;;;;;5050380;28;20635;-81
2023/05/20 08:51:52;;;;;;;7.67;5.27;;;;;;;;;;5049919;28;20198;-80
2023/05/20 08:54:20;;;;;;;6.67;4.60;;;;;;;;;;5037110;28;20201;-81
2023/05/20 08:56:47;;;;;;;5.93;5.40;;;;;;;;;;5049128;27;20225;-80
2023/05/20 08:59:14;;;;;;;6.97;5.33;;;;;;;;;;5049960;28;20254;-80
2023/05/20 09:01:42;;;;;;;5.70;5.00;;;;;;;;;;5035247;28;20770;-80
2023/05/20 09:04:09;;;;;;;6.33;4.97;;;;;;;;;;5037484;28;20255;-80
2023/05/20 09:06:43;;;;;;;5.77;5.17;;;;;;;;;;5046964;28;20193;-81
2023/05/20 09:09:12;;;;;;;8.17;5.03;;;;;;;;;;5037894;28;20288;-81
2023/05/20 09:11:40;;;;;;;8.07;5.50;;;;;;;;;;5048603;28;20205;-81
2023/05/20 09:14:08;;;;;;;6.10;5.27;;;;;;;;;;5048927;28;20289;-80
2023/05/20 09:16:35;;;;;;;6.63;5.80;;;;;;;;;;5034979;28;20221;-80
2023/05/20 09:19:02;;;;;;;5.43;4.90;;;;;;;;;;5049383;28;20707;-81
2023/05/20 09:21:29;;;;;;;6.67;4.57;;;;;;;;;;5032532;28;20216;-81
2023/05/20 09:23:58;;;;;;;7.90;5.47;;;;;;;;;;5040046;28;20240;-81
2023/05/20 09:26:28;;;;;;;5.93;4.97;;;;;;;;;;5049595;28;20206;-84
2023/05/20 09:28:56;;;;;;;5.90;5.40;;;;;;;;;;5049331;28;20293;-81
2023/05/20 09:31:26;;;;;;;7.57;5.10;;;;;;;;;;5035815;28;20251;-81
2023/05/20 09:33:53;;;;;;;7.93;5.67;;;;;;;;;;5036925;28;20607;-80
2023/05/20 09:36:20;;;;;;;7.13;5.03;;;;;;;;;;5035571;28;20201;-80
2023/05/20 09:38:51;;;;;;;5.07;4.33;;;;;;;;;;5049567;28;20312;-80
2023/05/20 09:41:18;;;;;;;7.77;6.37;;;;;;;;;;5048175;28;20197;-80
2023/05/20 09:43:46;;;;;;;8.70;5.70;;;;;;;;;;5039513;28;20252;-81
2023/05/20 09:46:13;;;;;;;7.33;5.90;;;;;;;;;;5042354;28;20218;-80
2023/05/20 09:48:40;;;;;;;6.17;5.47;;;;;;;;;;5029162;28;20222;-80
2023/05/20 09:51:07;;;;;;;4.83;4.43;;;;;;;;;;5023497;28;20205;-80
2023/05/20 09:53:34;;;;;;;6.13;5.57;;;;;;;;;;5048757;28;20213;-81
2023/05/20 09:56:01;;;;;;;6.50;5.57;;;;;;;;;;5022861;28;20206;-80
2023/05/20 09:58:29;;;;;;;13.53;6.83;;;;;;;;;;5047906;28;20286;-81
2023/05/20 10:00:57;;;;;;;9.17;5.73;;;;;;;;;;5049048;28;20214;-80
2023/05/20 10:03:26;;;;;;;8.00;6.33;;;;;;;;;;5036091;28;20278;-81
2023/05/20 10:06:03;;;;;;;7.10;5.80;;;;;;;;;;5040783;28;20455;-80
2023/05/20 10:08:41;;;;;;;7.23;5.03;;;;;;;;;;5041855;28;20202;-80
2023/05/20 10:11:15;;;;;;;6.57;5.97;;;;;;;;;;5040563;28;20200;-80
2023/05/20 10:14:00;;;;;;;5.87;5.27;;;;;;;;;;5048308;28;20262;-80
2023/05/20 10:16:37;;;;;;;7.70;5.80;;;;;;;;;;5034828;28;20206;-83
2023/05/20 10:19:13;;;;;;;8.23;5.27;;;;;;;;;;5048266;28;20703;-80
2023/05/20 10:21:39;;;;;;;7.73;5.10;;;;;;;;;;5048546;28;20251;-80
2023/05/20 10:24:07;;;;;;;7.30;5.13;;;;;;;;;;5048454;28;20210;-80
2023/05/20 10:26:37;;;;;;;8.60;5.70;;;;;;;;;;5034826;28;20226;-80
2023/05/20 10:29:16;;;;;;;5.87;5.20;;;;;;;;;;5048192;28;20231;-80
2023/05/20 10:31:50;;;;;;;9.40;5.03;;;;;;;;;;5048496;28;20213;-80
2023/05/20 10:34:17;;;;;;;6.63;5.20;;;;;;;;;;5048425;28;20206;-80
2023/05/20 10:36:46;;;;;;;6.63;5.57;;;;;;;;;;5047852;28;20300;-80
2023/05/20 10:39:16;;;;;;;7.20;5.70;;;;;;;;;;5047813;28;20302;-80
2023/05/20 10:41:46;;;;;;;5.20;4.80;;;;;;;;;;5048478;28;20305;-80
2023/05/20 10:44:14;;;;;;;5.13;4.53;;;;;;;;;;5048177;28;20206;-80
2023/05/20 10:46:40;;;;;;;5.60;5.10;;;;;;;;;;5037643;28;20240;-79
2023/05/20 10:49:19;;;;;;;7.70;5.17;;;;;;;;;;5019629;28;20203;-79
2023/05/20 10:51:47;;;;;;;5.23;4.67;;;;;;;;;;5017938;28;20260;-80
2023/05/20 10:54:14;;;;;;;6.13;5.53;;;;;;;;;;5034528;28;20214;-78
2023/05/20 10:56:51;;;;;;;5.33;4.77;;;;;;;;;;5017305;28;20203;-78
2023/05/20 10:59:18;;;;;;;5.73;5.07;;;;;;;;;;5022468;28;20270;-80
2023/05/20 11:01:46;;;;;;;8.27;4.97;;;;;;;;;;5024142;28;20207;-79
2023/05/20 11:04:13;;;;;;;4.50;4.10;;;;;;;;;;5024374;28;20206;-81
2023/05/20 11:06:50;;;;;;;9.83;6.13;;;;;;;;;;5037761;28;20224;-83
2023/05/20 11:09:17;;;;;;;8.80;5.47;;;;;;;;;;5040795;28;20626;-79
2023/05/20 11:11:43;;;;;;;5.50;5.00;;;;;;;;;;5037860;28;20628;-79
2023/05/20 11:14:12;;;;;;;6.80;5.80;;;;;;;;;;5032148;28;20201;-80
2023/05/20 11:16:39;;;;;;;5.43;4.90;;;;;;;;;;5047489;28;20212;-81
2023/05/20 11:19:07;;;;;;;8.07;6.20;;;;;;;;;;5047588;28;20224;-80
2023/05/20 11:21:34;;;;;;;7.70;5.37;;;;;;;;;;5048058;28;20209;-80
2023/05/20 11:24:02;;;;;;;6.47;5.33;;;;;;;;;;5042912;28;20213;-80
2023/05/20 11:26:30;;;;;;;6.70;6.00;;;;;;;;;;5040292;28;20201;-80
2023/05/20 11:28:57;;;;;;;5.63;5.13;;;;;;;;;;5042287;28;20226;-80
2023/05/20 11:31:25;;;;;;;6.10;5.23;;;;;;;;;;5028219;28;20197;-79
2023/05/20 11:33:52;;;;;;;7.77;5.70;;;;;;;;;;5047419;28;20244;-80
2023/05/20 11:36:21;;;;;;;7.03;5.93;;;;;;;;;;5034565;28;20633;-80
2023/05/20 11:38:49;;;;;;;8.10;5.80;;;;;;;;;;5022038;28;20225;-79
2023/05/20 11:41:17;;;;;;;6.93;6.00;;;;;;;;;;5047128;28;20262;-80
2023/05/20 11:43:44;;;;;;;7.97;5.47;;;;;;;;;;5035253;28;20216;-80
2023/05/20 11:46:11;;;;;;;7.00;5.70;;;;;;;;;;5047582;28;20222;-80
2023/05/20 11:48:37;;;;;;;8.47;6.00;;;;;;;;;;5047702;28;20236;-80
2023/05/20 11:51:04;;;;;;;6.27;5.70;;;;;;;;;;5046950;28;20205;-80
2023/05/20 11:53:31;;;;;;;7.37;5.37;;;;;;;;;;5047384;28;20242;-81
2023/05/20 11:55:59;;;;;;;6.67;5.87;;;;;;;;;;5034117;28;20680;-80
2023/05/20 11:58:28;;;;;;;7.27;5.13;;;;;;;;;;5033580;28;20230;-79
2023/05/20 12:00:54;;;;;;;6.27;5.17;;;;;;;;;;5046191;28;20198;-79
2023/05/20 12:03:21;;;;;;;5.63;5.03;;;;;;;;;;5034941;28;20255;-79
2023/05/20 12:05:49;;;;;;;5.53;4.73;;;;;;;;;;5050234;28;20224;-79
2023/05/20 12:08:16;;;;;;;8.60;5.37;;;;;;;;;;5050627;28;20676;-79
2023/05/20 12:10:44;;;;;;;6.67;4.33;;;;;;;;;;5050261;28;20708;-79
2023/05/20 12:13:12;;;;;;;6.77;4.73;;;;;;;;;;5050378;28;20202;-79
2023/05/20 12:15:40;;;;;;;5.17;4.67;;;;;;;;;;5024449;28;20198;-79
2023/05/20 12:18:07;;;;;;;5.63;5.10;;;;;;;;;;5050419;28;20695;-79
2023/05/20 12:20:35;;;;;;;5.07;4.57;;;;;;;;;;5050558;28;20696;-80
2023/05/20 12:23:01;;;;;;;6.57;5.23;;;;;;;;;;5036725;28;20194;-80
2023/05/20 12:25:28;;;;;;;6.00;5.07;;;;;;;;;;5050565;28;20202;-79
2023/05/20 12:27:55;;;;;;;7.97;5.10;;;;;;;;;;5037080;28;20622;-79
2023/05/20 12:30:23;;;;;;;6.77;5.47;;;;;;;;;;5050293;28;20273;-79
2023/05/20 12:32:53;;;;;;;7.80;5.13;;;;;;;;;;5047365;28;20209;-79
2023/05/20 12:35:36;;;;;;;5.57;5.07;;;;;;;;;;5039418;28;20254;-79
2023/05/20 12:38:03;;;;;;;5.47;4.93;;;;;;;;;;5049819;28;20730;-79
2023/05/20 12:40:31;;;;;;;6.83;4.93;;;;;;;;;;5038844;28;20203;-79
2023/05/20 12:42:58;;;;;;;5.47;4.77;;;;;;;;;;5048880;28;20202;-81
2023/05/20 12:45:25;;;;;;;5.50;5.00;;;;;;;;;;5050450;28;20297;-79
2023/05/20 12:47:56;;;;;;;7.17;6.13;;;;;;;;;;5049729;28;20230;-79
2023/05/20 12:50:24;;;;;;;5.67;5.03;;;;;;;;;;5036361;28;20707;-80
2023/05/20 12:52:51;;;;;;;8.97;4.97;;;;;;;;;;5042527;28;20207;-79
2023/05/20 12:55:20;;;;;;;8.30;5.13;;;;;;;;;;5044154;28;20262;-80
2023/05/20 12:57:47;;;;;;;7.93;5.67;;;;;;;;;;5049629;28;20205;-79
2023/05/20 13:00:15;;;;;;;5.57;4.83;;;;;;;;;;5049266;28;20202;-80
2023/05/20 13:02:42;;;;;;;5.43;4.93;;;;;;;;;;5049734;28;20284;-79
2023/05/20 13:05:11;;;;;;;5.90;5.30;;;;;;;;;;5049523;28;20210;-80
2023/05/20 13:07:38;;;;;;;6.00;5.40;;;;;;;;;;5049538;28;20598;-79
2023/05/20 13:10:05;;;;;;;6.40;5.90;;;;;;;;;;5049604;28;20206;-80
2023/05/20 13:12:34;;;;;;;6.93;6.10;;;;;;;;;;5049330;28;20202;-80
2023/05/20 13:15:00;;;;;;;6.77;5.70;;;;;;;;;;5049367;28;20692;-79
2023/05/20 13:17:28;;;;;;;12.77;5.77;;;;;;;;;;5049762;28;20202;-79
2023/05/20 13:19:56;;;;;;;7.17;5.30;;;;;;;;;;5049488;28;20317;-80
2023/05/20 13:22:24;;;;;;;8.07;5.60;;;;;;;;;;5049092;28;20202;-79
2023/05/20 13:24:51;;;;;;;6.93;5.83;;;;;;;;;;5049584;28;20649;-79
2023/05/20 13:27:18;;;;;;;5.63;4.87;;;;;;;;;;5049199;28;20688;-79
2023/05/20 13:29:45;;;;;;;9.13;5.27;;;;;;;;;;5049094;28;20201;-80
2023/05/20 13:32:12;;;;;;;8.47;5.63;;;;;;;;;;5047684;28;20213;-79
2023/05/20 13:34:39;;;;;;;5.17;4.37;;;;;;;;;;5049285;28;20202;-80
2023/05/20 13:37:06;;;;;;;6.90;5.43;;;;;;;;;;5049207;28;20206;-80
2023/05/20 13:39:35;;;;;;;6.07;5.43;;;;;;;;;;5048346;28;20226;-80
2023/05/20 13:42:03;;;;;;;5.63;5.10;;;;;;;;;;5049351;28;20213;-79
2023/05/20 13:44:29;;;;;;;8.20;7.23;;;;;;;;;;5049432;28;20244;-79
2023/05/20 13:46:56;;;;;;;8.43;7.43;;;;;;;;;;5028094;28;20227;-79
2023/05/20 13:49:24;;;;;;;9.07;6.13;;;;;;;;;;5036779;28;20214;-79
2023/05/20 13:51:51;;;;;;;7.77;6.93;;;;;;;;;;5044031;28;20232;-79
2023/05/20 13:54:17;;;;;;;7.07;5.03;;;;;;;;;;5048902;28;20614;-79
2023/05/20 13:56:45;;;;;;;6.70;5.20;;;;;;;;;;5031158;28;20210;-79
2023/05/20 13:59:12;;;;;;;7.00;5.57;;;;;;;;;;5048252;28;20229;-79
2023/05/20 14:01:43;;;;;;;11.90;5.80;;;;;;;;;;5036163;28;20204;-79
2023/05/20 14:04:10;;;;;;;8.07;6.47;;;;;;;;;;5032778;28;20289;-79
2023/05/20 14:06:37;;;;;;;7.23;5.37;;;;;;;;;;5048534;28;20630;-80
2023/05/20 14:09:05;;;;;;;7.47;5.47;;;;;;;;;;5049099;28;20198;-79
2023/05/20 14:11:32;;;;;;;8.93;6.00;;;;;;;;;;5048361;28;20680;-79
2023/05/20 14:14:00;;;;;;;10.47;5.97;;;;;;;;;;5048736;28;20209;-79
2023/05/20 14:16:27;;;;;;;6.77;4.97;;;;;;;;;;5048289;28;20209;-79
2023/05/20 14:18:57;;;;;;;7.53;5.37;;;;;;;;;;5048301;28;20214;-79
2023/05/20 14:21:24;;;;;;;5.87;5.20;;;;;;;;;;5048901;28;20206;-79
2023/05/20 14:23:51;;;;;;;6.53;5.90;;;;;;;;;;5047827;28;20206;-79
2023/05/20 14:26:20;;;;;;;10.63;5.70;;;;;;;;;;5032771;28;20627;-79
2023/05/20 14:28:47;;;;;;;11.77;5.47;;;;;;;;;;5035579;28;20215;-79
2023/05/20 14:31:16;;;;;;;7.33;5.70;;;;;;;;;;5021520;28;20207;-79
2023/05/20 14:33:42;;;;;;;6.87;5.70;;;;;;;;;;5034454;28;20227;-80
2023/05/20 14:36:10;;;;;;;10.40;6.63;;;;;;;;;;5023225;28;20215;-80
2023/05/20 14:38:37;;;;;;;11.53;6.40;;;;;;;;;;5025030;28;20230;-79
2023/05/20 14:41:04;;;;;;;7.20;6.50;;;;;;;;;;5034934;27;20198;-80
2023/05/20 14:43:31;;;;;;;7.00;6.40;;;;;;;;;;5023216;28;20210;-79